Terminal Aerodrome Forecast
Issued by NWS Sterling, VA

Home | Current Version | Previous Version | Text Only | Print | Product List | Glossary On
Versions: 1 2 3 4 5 6 7 8 9 10 11 12 13 14 15
130
FTUS41 KLWX 281120
TAFCHO
TAF
KCHO 281120Z 2812/0112 19008KT P6SM SCT040 BKN250
     FM282100 19009KT P6SM -SHRA SCT040 OVC050
     FM010000 20008KT 4SM -SHRA SCT025 OVC050
     FM010300 20008KT 3SM BR BKN010 OVC025
     FM010600 20009KT P6SM BKN020 OVC025
     FM010900 20010G17KT P6SM BKN015 OVC025=

USA.gov is the U.S. government's official web portal to all federal, state and local government web resources and services.